createdAt,value
2023-03-19T00:00:53.830Z,8.90
2023-03-19T00:03:58.055Z,9.13
2023-03-19T00:07:02.377Z,9.77
2023-03-19T00:10:07.012Z,9.03
2023-03-19T00:13:12.870Z,9.00
2023-03-19T00:16:16.999Z,8.83
2023-03-19T00:19:21.082Z,9.87
2023-03-19T00:22:25.015Z,8.07
2023-03-19T00:25:29.211Z,8.40
2023-03-19T00:28:35.732Z,7.90
2023-03-19T00:31:40.259Z,8.03
2023-03-19T00:34:44.859Z,8.03
2023-03-19T00:37:48.851Z,9.47
2023-03-19T00:40:52.899Z,8.13
2023-03-19T00:43:59.686Z,8.73
2023-03-19T00:47:07.664Z,7.87
2023-03-19T00:50:12.728Z,8.83
2023-03-19T00:53:16.772Z,7.70
2023-03-19T00:56:21.624Z,7.67
2023-03-19T00:59:27.428Z,6.43
2023-03-19T01:02:32.516Z,7.47
2023-03-19T01:08:40.962Z,6.50
2023-03-19T01:11:45.065Z,5.93
2023-03-19T01:14:50.456Z,6.37
2023-03-19T01:17:54.340Z,5.90
2023-03-19T01:20:58.510Z,6.07
2023-03-19T01:24:03.709Z,5.87
2023-03-19T01:27:07.803Z,6.40
2023-03-19T01:30:15.727Z,5.90
2023-03-19T01:33:55.056Z,5.80
2023-03-19T01:37:17.470Z,5.60
2023-03-19T01:40:22.156Z,6.00
2023-03-19T01:43:27.402Z,6.60
2023-03-19T01:46:53.132Z,6.93
2023-03-19T01:50:25.544Z,7.00
2023-03-19T01:53:46.866Z,6.93
2023-03-19T01:56:59.968Z,7.33
2023-03-19T02:00:27.980Z,7.33
2023-03-19T02:03:34.960Z,7.13
2023-03-19T02:06:55.370Z,7.87
2023-03-19T02:10:01.485Z,7.77
2023-03-19T02:13:06.950Z,7.67
2023-03-19T02:16:11.326Z,9.57
2023-03-19T02:19:24.188Z,11.10
2023-03-19T02:22:31.269Z,11.57
2023-03-19T02:25:44.996Z,12.60
2023-03-19T02:28:54.250Z,11.57
2023-03-19T02:32:05.189Z,8.93
2023-03-19T02:35:11.188Z,8.87
2023-03-19T02:38:16.671Z,8.10
2023-03-19T02:41:21.749Z,7.77
2023-03-19T02:44:27.415Z,6.90
2023-03-19T02:47:31.442Z,5.83
2023-03-19T02:50:35.777Z,6.13
2023-03-19T02:53:39.786Z,5.83
2023-03-19T02:56:43.812Z,5.30
2023-03-19T02:59:49.257Z,5.23
2023-03-19T03:02:53.321Z,5.07
2023-03-19T03:05:57.265Z,5.57
2023-03-19T03:09:01.403Z,6.70
2023-03-19T03:12:06.449Z,6.10
2023-03-19T03:15:12.219Z,5.77
2023-03-19T03:18:16.146Z,6.50
2023-03-19T03:21:21.756Z,7.07
2023-03-19T03:24:25.778Z,6.67
2023-03-19T03:27:29.912Z,7.13
2023-03-19T03:30:35.692Z,7.87
2023-03-19T03:33:39.783Z,7.27
2023-03-19T03:36:43.742Z,7.77
2023-03-19T03:39:48.648Z,7.53
2023-03-19T03:42:52.531Z,7.67
2023-03-19T03:45:58.689Z,8.20
2023-03-19T03:49:02.942Z,8.23
2023-03-19T03:52:08.821Z,7.73
2023-03-19T03:55:12.962Z,8.33
2023-03-19T03:58:17.171Z,7.00
2023-03-19T04:01:22.952Z,7.33
2023-03-19T04:04:31.745Z,6.73
2023-03-19T04:07:36.208Z,6.40
2023-03-19T04:10:42.620Z,8.03
2023-03-19T04:13:47.230Z,7.90
2023-03-19T04:16:52.869Z,7.77
2023-03-19T04:19:56.861Z,8.00
2023-03-19T04:23:00.788Z,7.67
2023-03-19T04:26:07.342Z,8.07
2023-03-19T04:29:12.065Z,7.70
2023-03-19T04:32:17.538Z,7.07
2023-03-19T04:35:21.908Z,6.53
2023-03-19T04:38:28.021Z,6.80
2023-03-19T04:41:32.234Z,6.43
2023-03-19T04:44:55.757Z,6.90
2023-03-19T04:48:02.100Z,6.20
2023-03-19T04:51:09.580Z,7.10
2023-03-19T04:54:15.125Z,6.67
2023-03-19T04:57:20.438Z,6.30
2023-03-19T05:00:28.520Z,5.93
2023-03-19T05:03:34.123Z,7.17
2023-03-19T05:06:38.533Z,6.37
2023-03-19T05:09:44.138Z,6.23
2023-03-19T05:12:48.412Z,6.40
2023-03-19T05:15:55.715Z,6.87
2023-03-19T05:19:01.755Z,6.77
2023-03-19T05:22:07.012Z,6.50
2023-03-19T05:25:11.829Z,6.00
2023-03-19T05:28:17.607Z,6.00
2023-03-19T05:31:22.136Z,6.73
2023-03-19T05:34:31.276Z,6.97
2023-03-19T05:37:35.529Z,7.23
2023-03-19T05:40:42.238Z,7.27
2023-03-19T05:43:58.945Z,7.80
2023-03-19T05:47:25.985Z,8.70
2023-03-19T05:50:34.740Z,8.70
2023-03-19T05:53:48.882Z,7.57
2023-03-19T05:57:11.070Z,6.87
2023-03-19T06:00:22.507Z,6.53
2023-03-19T06:03:27.495Z,6.17
2023-03-19T06:06:35.120Z,6.10
2023-03-19T06:09:39.478Z,7.57
2023-03-19T06:12:43.721Z,6.67
2023-03-19T06:16:10.376Z,6.87
2023-03-19T06:19:18.079Z,6.10
2023-03-19T06:22:23.725Z,7.20
2023-03-19T06:25:27.875Z,6.90
2023-03-19T06:28:32.040Z,5.57
2023-03-19T06:31:36.338Z,6.07
2023-03-19T06:34:48.396Z,6.17
2023-03-19T06:37:54.225Z,5.27
2023-03-19T06:40:58.320Z,5.10
2023-03-19T06:44:02.652Z,5.60
2023-03-19T06:47:07.466Z,4.37
2023-03-19T06:50:13.821Z,4.60
2023-03-19T06:53:19.502Z,4.50
2023-03-19T06:56:23.602Z,4.37
2023-03-19T06:59:27.934Z,4.40
2023-03-19T07:02:32.092Z,4.83
2023-03-19T07:05:36.316Z,5.23
2023-03-19T07:08:46.585Z,5.10
2023-03-19T07:11:50.730Z,5.57
2023-03-19T07:14:54.830Z,5.97
2023-03-19T07:17:58.976Z,5.53
2023-03-19T07:21:03.091Z,5.80
2023-03-19T07:24:09.031Z,5.73
2023-03-19T07:27:13.382Z,5.20
2023-03-19T07:30:17.860Z,5.60
2023-03-19T07:33:22.348Z,5.67
2023-03-19T07:36:26.621Z,5.53
2023-03-19T07:39:32.418Z,5.33
2023-03-19T07:42:36.931Z,5.17
2023-03-19T07:45:41.440Z,4.77
2023-03-19T07:48:45.456Z,4.80
2023-03-19T07:51:49.577Z,4.37
2023-03-19T07:54:55.272Z,4.80
2023-03-19T07:57:59.464Z,4.33
2023-03-19T08:01:03.796Z,4.73
2023-03-19T08:04:08.504Z,4.70
2023-03-19T08:07:13.223Z,4.60
2023-03-19T08:10:19.019Z,4.57
2023-03-19T08:13:23.113Z,4.40
2023-03-19T08:16:27.641Z,4.40
2023-03-19T08:19:32.261Z,3.90
2023-03-19T08:22:37.496Z,4.73
2023-03-19T08:25:43.630Z,4.43
2023-03-19T08:28:47.728Z,3.67
2023-03-19T08:31:51.812Z,3.80
2023-03-19T08:34:56.131Z,3.97
2023-03-19T08:38:00.265Z,4.20
2023-03-19T08:41:06.643Z,3.73
2023-03-19T08:44:10.752Z,3.70
2023-03-19T08:47:15.023Z,3.90
2023-03-19T08:50:20.332Z,3.97
2023-03-19T08:53:25.153Z,6.97
2023-03-19T08:56:30.626Z,3.80
2023-03-19T08:59:34.756Z,4.10
2023-03-19T09:02:39.113Z,3.87
2023-03-19T09:05:43.236Z,3.83
2023-03-19T09:08:47.347Z,3.83
2023-03-19T09:11:53.042Z,3.73
2023-03-19T09:14:57.137Z,3.57
2023-03-19T09:18:01.434Z,3.17
2023-03-19T09:21:06.393Z,3.37
2023-03-19T09:24:10.963Z,3.80
2023-03-19T09:27:16.406Z,3.67
2023-03-19T09:30:20.661Z,3.57
2023-03-19T09:33:24.830Z,3.47
2023-03-19T09:36:29.131Z,3.20
2023-03-19T09:39:33.767Z,3.00
2023-03-19T09:42:57.705Z,3.10
2023-03-19T09:46:05.861Z,3.43
2023-03-19T09:49:22.333Z,3.03
2023-03-19T09:52:43.358Z,3.27
2023-03-19T09:55:51.883Z,2.90
2023-03-19T09:58:57.465Z,3.27
2023-03-19T10:02:26.456Z,3.57
2023-03-19T10:05:43.979Z,3.63
2023-03-19T10:09:00.000Z,3.50
2023-03-19T10:12:19.467Z,3.20
2023-03-19T10:15:30.091Z,2.60
2023-03-19T10:18:39.618Z,2.20
2023-03-19T10:21:48.868Z,2.30
2023-03-19T10:24:55.972Z,3.30
2023-03-19T10:28:03.600Z,3.30
2023-03-19T10:31:26.373Z,3.53
2023-03-19T10:34:35.920Z,2.63
2023-03-19T10:37:40.352Z,3.20
2023-03-19T10:40:50.947Z,2.40
2023-03-19T10:43:59.669Z,2.73
2023-03-19T10:47:14.231Z,2.50
2023-03-19T10:50:20.740Z,2.90
2023-03-19T10:53:34.568Z,2.43
2023-03-19T10:56:47.191Z,2.70
2023-03-19T10:59:51.321Z,2.60
2023-03-19T11:02:59.526Z,2.30
2023-03-19T11:06:09.329Z,2.67
2023-03-19T11:09:24.949Z,2.37
2023-03-19T11:12:35.508Z,2.37
2023-03-19T11:15:40.667Z,2.20
2023-03-19T11:18:50.326Z,3.70
2023-03-19T11:22:04.435Z,2.90
2023-03-19T11:25:19.308Z,2.60
2023-03-19T11:28:26.958Z,2.97
2023-03-19T11:31:39.224Z,2.77
2023-03-19T11:34:52.631Z,3.10
2023-03-19T11:38:01.068Z,3.20
2023-03-19T11:41:14.806Z,2.90
2023-03-19T11:44:24.794Z,2.73
2023-03-19T11:47:38.083Z,2.80
2023-03-19T11:50:51.643Z,3.00
2023-03-19T11:54:06.630Z,2.90
2023-03-19T11:57:14.360Z,2.63
2023-03-19T12:00:30.050Z,2.80
2023-03-19T12:03:59.374Z,2.97
2023-03-19T12:07:16.028Z,3.03
2023-03-19T12:10:43.945Z,3.27
2023-03-19T12:14:03.191Z,2.50
2023-03-19T12:17:24.950Z,3.00
2023-03-19T12:20:46.873Z,3.80
2023-03-19T12:24:05.802Z,3.20
2023-03-19T12:27:23.807Z,3.00
2023-03-19T12:30:36.014Z,2.90
2023-03-19T12:33:48.237Z,3.00
2023-03-19T12:36:59.278Z,2.90
2023-03-19T12:40:24.270Z,2.73
2023-03-19T12:43:33.989Z,3.43
2023-03-19T12:46:43.748Z,2.63
2023-03-19T12:49:53.736Z,2.53
2023-03-19T12:53:02.245Z,2.40
2023-03-19T12:56:14.924Z,2.83
2023-03-19T12:59:34.608Z,3.00
2023-03-19T13:02:44.505Z,2.60
2023-03-19T13:05:54.904Z,2.50
2023-03-19T13:09:06.674Z,2.40
2023-03-19T13:12:19.194Z,2.77
2023-03-19T13:15:30.778Z,2.60
2023-03-19T13:18:42.769Z,3.70
2023-03-19T13:21:50.734Z,3.07
2023-03-19T13:24:57.134Z,1.90
2023-03-19T13:28:02.736Z,2.13
2023-03-19T13:31:09.321Z,1.60
2023-03-19T13:34:23.251Z,1.90
2023-03-19T13:37:28.394Z,2.10
2023-03-19T13:40:44.573Z,1.97
2023-03-19T13:43:56.980Z,2.00
2023-03-19T13:47:03.841Z,2.80
2023-03-19T13:50:28.711Z,2.67
2023-03-19T13:53:39.898Z,2.53
2023-03-19T13:57:08.901Z,2.90
2023-03-19T14:00:45.853Z,2.90
2023-03-19T14:03:58.806Z,3.60
2023-03-19T14:07:14.479Z,3.63
2023-03-19T14:10:25.675Z,3.70
2023-03-19T14:13:34.957Z,3.20
2023-03-19T14:16:44.012Z,3.57
2023-03-19T14:19:51.560Z,3.17
2023-03-19T14:23:04.936Z,2.97
2023-03-19T14:26:14.809Z,3.00
2023-03-19T14:29:20.167Z,3.33
2023-03-19T14:32:36.068Z,2.70
2023-03-19T14:35:47.376Z,2.87
2023-03-19T14:38:54.734Z,3.43
2023-03-19T14:42:07.552Z,3.03
2023-03-19T14:45:41.130Z,3.20
2023-03-19T14:49:11.770Z,2.90
2023-03-19T14:52:22.367Z,2.77
2023-03-19T14:55:36.110Z,3.20
2023-03-19T14:58:50.282Z,2.97
2023-03-19T15:01:55.577Z,3.07
2023-03-19T15:05:01.306Z,2.63
2023-03-19T15:08:13.490Z,3.20
2023-03-19T15:11:55.278Z,2.70
2023-03-19T15:15:21.647Z,3.00
2023-03-19T15:18:27.910Z,2.90
2023-03-19T15:21:32.541Z,3.00
2023-03-19T15:24:38.221Z,2.70
2023-03-19T15:27:43.137Z,2.60
2023-03-19T15:31:03.579Z,2.67
2023-03-19T15:34:23.841Z,2.30
2023-03-19T15:37:32.409Z,3.00
2023-03-19T15:40:39.835Z,2.80
2023-03-19T15:43:45.050Z,2.73
2023-03-19T15:46:50.742Z,3.03
2023-03-19T15:49:59.384Z,4.40
2023-03-19T15:53:09.142Z,3.67
2023-03-19T15:56:17.217Z,4.60
2023-03-19T15:59:24.894Z,4.67
2023-03-19T16:02:32.089Z,5.00
2023-03-19T16:05:36.874Z,4.47
2023-03-19T16:08:49.252Z,3.40
2023-03-19T16:11:56.212Z,4.47
2023-03-19T16:15:00.428Z,4.47
2023-03-19T16:18:26.927Z,4.23
2023-03-19T16:21:36.688Z,3.70
2023-03-19T16:24:43.292Z,3.93
2023-03-19T16:27:49.597Z,3.90
2023-03-19T16:30:53.875Z,3.77
2023-03-19T16:33:58.380Z,3.87
2023-03-19T16:37:03.660Z,3.80
2023-03-19T16:40:47.477Z,3.70
2023-03-19T16:43:55.164Z,3.43
2023-03-19T16:46:59.219Z,3.53
2023-03-19T16:50:03.416Z,5.30
2023-03-19T16:53:16.145Z,3.80
2023-03-19T16:56:20.995Z,5.13
2023-03-19T16:59:31.388Z,5.47
2023-03-19T17:02:35.550Z,25.43
2023-03-19T17:05:39.605Z,5.40
2023-03-19T17:08:44.484Z,5.07
2023-03-19T17:11:48.716Z,7.57
2023-03-19T17:14:54.504Z,7.60
2023-03-19T17:17:59.263Z,6.70
2023-03-19T17:21:07.603Z,7.07
2023-03-19T17:24:24.933Z,7.47
2023-03-19T17:27:29.352Z,7.50
2023-03-19T17:30:35.476Z,6.43
2023-03-19T17:33:39.883Z,6.67
2023-03-19T17:36:53.548Z,7.43
2023-03-19T17:39:57.694Z,6.37
2023-03-19T17:43:01.987Z,7.50
2023-03-19T17:46:07.955Z,8.07
2023-03-19T17:49:20.664Z,8.37
2023-03-19T17:52:24.954Z,9.13
2023-03-19T17:55:30.907Z,7.40
2023-03-19T17:58:35.633Z,8.37
2023-03-19T18:01:43.336Z,7.53
2023-03-19T18:04:47.495Z,7.60
2023-03-19T18:07:54.891Z,6.97
2023-03-19T18:10:59.270Z,7.50
2023-03-19T18:14:03.347Z,9.83
2023-03-19T18:17:09.678Z,11.03
2023-03-19T18:20:16.012Z,16.43
2023-03-19T18:23:20.504Z,17.47
2023-03-19T18:26:24.859Z,18.00
2023-03-19T18:29:28.930Z,17.37
2023-03-19T18:32:34.914Z,18.17
2023-03-19T18:35:41.882Z,12.77
2023-03-19T18:38:46.130Z,11.17
2023-03-19T18:41:50.297Z,11.80
2023-03-19T18:44:54.403Z,10.63
2023-03-19T18:48:00.771Z,11.93
2023-03-19T18:51:05.362Z,9.47
2023-03-19T18:54:11.579Z,14.70
2023-03-19T18:57:16.351Z,16.30
2023-03-19T19:00:22.841Z,11.00
2023-03-19T19:03:29.910Z,11.10
2023-03-19T19:06:46.906Z,10.43
2023-03-19T19:09:52.119Z,12.43
2023-03-19T19:12:57.227Z,12.33
2023-03-19T19:16:01.999Z,12.63
2023-03-19T19:19:16.788Z,12.57
2023-03-19T19:22:21.525Z,12.37
2023-03-19T19:25:27.553Z,12.60
2023-03-19T19:28:34.242Z,12.43
2023-03-19T19:31:38.501Z,12.70
2023-03-19T19:34:44.173Z,10.70
2023-03-19T19:37:48.284Z,9.83
2023-03-19T19:40:55.441Z,9.33
2023-03-19T19:44:03.487Z,8.43
2023-03-19T19:47:15.437Z,10.47
2023-03-19T19:50:22.518Z,9.37
2023-03-19T19:53:29.122Z,9.47
2023-03-19T19:56:33.278Z,9.07
2023-03-19T19:59:39.575Z,9.60
2023-03-19T20:02:43.670Z,8.37
2023-03-19T20:05:49.573Z,8.40
2023-03-19T20:08:53.602Z,8.13
2023-03-19T20:11:57.822Z,8.77
2023-03-19T20:15:02.074Z,7.93
2023-03-19T20:18:07.102Z,8.53
2023-03-19T20:21:13.004Z,8.30
2023-03-19T20:24:17.246Z,8.83
2023-03-19T20:27:24.668Z,9.07
2023-03-19T20:30:31.089Z,8.77
2023-03-19T20:33:35.456Z,9.03
2023-03-19T20:36:41.128Z,8.80
2023-03-19T20:39:45.764Z,9.53
2023-03-19T20:42:52.255Z,7.73
2023-03-19T20:45:56.982Z,8.73
2023-03-19T20:49:02.348Z,8.90
2023-03-19T20:52:07.897Z,8.70
2023-03-19T20:55:17.315Z,9.00
2023-03-19T20:58:27.870Z,8.27
2023-03-19T21:01:32.624Z,8.87
2023-03-19T21:04:36.818Z,9.33
2023-03-19T21:07:42.849Z,9.10
2023-03-19T21:10:48.674Z,9.17
2023-03-19T21:13:54.369Z,9.00
2023-03-19T21:16:59.264Z,9.43
2023-03-19T21:20:03.611Z,10.13
2023-03-19T21:23:17.548Z,10.43
2023-03-19T21:26:22.854Z,10.40
2023-03-19T21:29:33.600Z,10.70
2023-03-19T21:32:37.707Z,10.50
2023-03-19T21:35:41.851Z,10.20
2023-03-19T21:38:47.924Z,11.30
2023-03-19T21:41:52.275Z,11.40
2023-03-19T21:45:01.223Z,11.07
2023-03-19T21:48:25.168Z,9.93
2023-03-19T21:51:30.224Z,10.83
2023-03-19T21:54:35.839Z,10.70
2023-03-19T21:57:39.923Z,10.57
2023-03-19T22:00:44.749Z,12.40
2023-03-19T22:03:48.922Z,12.10
2023-03-19T22:06:53.295Z,12.33
2023-03-19T22:09:58.829Z,13.20
2023-03-19T22:13:03.154Z,12.57
2023-03-19T22:16:08.119Z,11.97
2023-03-19T22:19:15.657Z,11.20
2023-03-19T22:22:19.773Z,10.30
2023-03-19T22:25:30.359Z,9.83
2023-03-19T22:28:36.386Z,11.00
2023-03-19T22:31:40.553Z,10.40
2023-03-19T22:34:45.269Z,10.30
2023-03-19T22:37:49.676Z,9.63
2023-03-19T22:40:57.504Z,9.70
2023-03-19T22:44:03.799Z,10.23
2023-03-19T22:47:08.055Z,10.67
2023-03-19T22:50:19.036Z,9.80
2023-03-19T22:53:25.241Z,10.80
2023-03-19T22:56:30.765Z,11.53
2023-03-19T22:59:34.882Z,10.57
2023-03-19T23:02:39.020Z,10.60
2023-03-19T23:05:47.475Z,10.97
2023-03-19T23:08:51.608Z,10.53
2023-03-19T23:11:58.257Z,10.30
2023-03-19T23:15:02.336Z,9.93
2023-03-19T23:18:15.220Z,10.47
2023-03-19T23:21:20.470Z,9.60
2023-03-19T23:24:24.559Z,10.07
2023-03-19T23:27:29.908Z,9.87
2023-03-19T23:30:34.872Z,9.87
2023-03-19T23:33:38.915Z,10.73
2023-03-19T23:36:43.896Z,10.10
2023-03-19T23:39:48.006Z,10.57
2023-03-19T23:42:57.109Z,10.43
2023-03-19T23:46:01.405Z,10.57
2023-03-19T23:49:05.364Z,10.60
2023-03-19T23:52:15.016Z,10.30
2023-03-19T23:55:19.916Z,10.07
2023-03-19T23:58:30.951Z,9.83
